sensor_id;sensor_type;location;lat;lon;timestamp;pressure;altitude;pressure_sealevel;temperature;humidity
61710;BME280;47633;51.494;5.386;2023-04-26T00:01:17;101852.41;;;18.67;36.25
61710;BME280;47633;51.494;5.386;2023-04-26T00:03:42;101853.47;;;18.64;36.36
61710;BME280;47633;51.494;5.386;2023-04-26T00:06:07;101848.31;;;18.63;36.29
61710;BME280;47633;51.494;5.386;2023-04-26T00:08:36;101850.06;;;18.62;35.99
61710;BME280;47633;51.494;5.386;2023-04-26T00:11:01;101854.53;;;18.62;36.21
61710;BME280;47633;51.494;5.386;2023-04-26T00:13:27;101850.19;;;18.61;36.03
61710;BME280;47633;51.494;5.386;2023-04-26T00:15:52;101857.25;;;18.60;36.17
61710;BME280;47633;51.494;5.386;2023-04-26T00:18:17;101859.16;;;18.58;36.17
61710;BME280;47633;51.494;5.386;2023-04-26T00:20:42;101855.56;;;18.59;36.02
61710;BME280;47633;51.494;5.386;2023-04-26T00:23:08;101855.66;;;18.58;35.98
61710;BME280;47633;51.494;5.386;2023-04-26T00:25:34;101858.41;;;18.56;36.00
61710;BME280;47633;51.494;5.386;2023-04-26T00:27:59;101858.31;;;18.58;35.78
61710;BME280;47633;51.494;5.386;2023-04-26T00:30:25;101854.19;;;18.54;36.09
61710;BME280;47633;51.494;5.386;2023-04-26T00:32:51;101850.78;;;18.52;36.19
61710;BME280;47633;51.494;5.386;2023-04-26T00:35:16;101845.66;;;18.50;36.26
61710;BME280;47633;51.494;5.386;2023-04-26T00:37:42;101852.50;;;18.53;35.96
61710;BME280;47633;51.494;5.386;2023-04-26T00:40:07;101851.56;;;18.54;36.07
61710;BME280;47633;51.494;5.386;2023-04-26T00:42:33;101854.19;;;18.54;35.96
61710;BME280;47633;51.494;5.386;2023-04-26T00:44:58;101855.13;;;18.53;36.02
61710;BME280;47633;51.494;5.386;2023-04-26T00:47:24;101857.03;;;18.51;35.81
61710;BME280;47633;51.494;5.386;2023-04-26T00:49:50;101851.75;;;18.51;35.72
61710;BME280;47633;51.494;5.386;2023-04-26T00:52:15;101857.16;;;18.49;35.79
61710;BME280;47633;51.494;5.386;2023-04-26T00:54:41;101852.69;;;18.49;35.79
61710;BME280;47633;51.494;5.386;2023-04-26T00:57:07;101848.50;;;18.47;35.59
61710;BME280;47633;51.494;5.386;2023-04-26T00:59:34;101848.50;;;18.47;35.64
61710;BME280;47633;51.494;5.386;2023-04-26T01:02:02;101853.88;;;18.45;35.66
61710;BME280;47633;51.494;5.386;2023-04-26T01:04:27;101853.00;;;18.45;35.68
61710;BME280;47633;51.494;5.386;2023-04-26T01:06:54;101852.06;;;18.46;35.72
61710;BME280;47633;51.494;5.386;2023-04-26T01:09:20;101853.88;;;18.45;35.96
61710;BME280;47633;51.494;5.386;2023-04-26T01:11:46;101851.44;;;18.42;35.80
61710;BME280;47633;51.494;5.386;2023-04-26T01:14:13;101850.47;;;18.43;35.70
61710;BME280;47633;51.494;5.386;2023-04-26T01:16:38;101852.47;;;18.40;35.69
61710;BME280;47633;51.494;5.386;2023-04-26T01:19:08;101848.13;;;18.39;35.70
61710;BME280;47633;51.494;5.386;2023-04-26T01:21:38;101847.19;;;18.40;35.70
61710;BME280;47633;51.494;5.386;2023-04-26T01:24:04;101842.75;;;18.40;35.49
61710;BME280;47633;51.494;5.386;2023-04-26T01:26:31;101858.59;;;18.40;35.47
61710;BME280;47633;51.494;5.386;2023-04-26T01:28:57;101863.13;;;18.38;35.36
61710;BME280;47633;51.494;5.386;2023-04-26T01:31:22;101858.78;;;18.37;35.50
61710;BME280;47633;51.494;5.386;2023-04-26T01:33:48;101858.88;;;18.36;35.31
61710;BME280;47633;51.494;5.386;2023-04-26T01:36:13;101856.38;;;18.34;35.24
61710;BME280;47633;51.494;5.386;2023-04-26T01:38:38;101857.41;;;18.31;35.38
61710;BME280;47633;51.494;5.386;2023-04-26T01:41:04;101860.88;;;18.32;35.35
61710;BME280;47633;51.494;5.386;2023-04-26T01:43:29;101853.06;;;18.30;35.52
61710;BME280;47633;51.494;5.386;2023-04-26T01:45:54;101856.47;;;18.33;35.22
61710;BME280;47633;51.494;5.386;2023-04-26T01:48:20;101852.97;;;18.32;34.85
61710;BME280;47633;51.494;5.386;2023-04-26T01:50:45;101860.78;;;18.34;35.35
61710;BME280;47633;51.494;5.386;2023-04-26T01:53:11;101852.03;;;18.33;35.45
61710;BME280;47633;51.494;5.386;2023-04-26T01:55:36;101850.44;;;18.30;35.13
61710;BME280;47633;51.494;5.386;2023-04-26T01:58:01;101859.13;;;18.33;35.15
61710;BME280;47633;51.494;5.386;2023-04-26T02:00:28;101851.31;;;18.31;34.95
61710;BME280;47633;51.494;5.386;2023-04-26T02:02:54;101858.47;;;18.29;35.12
61710;BME280;47633;51.494;5.386;2023-04-26T02:05:20;101856.69;;;18.29;35.14
61710;BME280;47633;51.494;5.386;2023-04-26T02:07:45;101857.63;;;18.28;35.20
61710;BME280;47633;51.494;5.386;2023-04-26T02:10:10;101859.53;;;18.26;35.17
61710;BME280;47633;51.494;5.386;2023-04-26T02:12:36;101854.34;;;18.25;34.98
61710;BME280;47633;51.494;5.386;2023-04-26T02:15:01;101856.97;;;18.25;35.12
61710;BME280;47633;51.494;5.386;2023-04-26T02:17:26;101848.31;;;18.23;35.07
61710;BME280;47633;51.494;5.386;2023-04-26T02:19:53;101854.53;;;18.22;34.79
61710;BME280;47633;51.494;5.386;2023-04-26T02:22:18;101857.09;;;18.23;34.85
61710;BME280;47633;51.494;5.386;2023-04-26T02:24:45;101862.47;;;18.22;34.96
61710;BME280;47633;51.494;5.386;2023-04-26T02:27:11;101849.47;;;18.19;35.05
61710;BME280;47633;51.494;5.386;2023-04-26T02:29:36;101856.31;;;18.21;34.76
61710;BME280;47633;51.494;5.386;2023-04-26T02:32:02;101851.13;;;18.20;34.83
61710;BME280;47633;51.494;5.386;2023-04-26T02:34:28;101849.47;;;18.19;34.81
61710;BME280;47633;51.494;5.386;2023-04-26T02:36:53;101853.78;;;18.20;34.90
61710;BME280;47633;51.494;5.386;2023-04-26T02:39:18;101851.25;;;18.18;34.80
61710;BME280;47633;51.494;5.386;2023-04-26T02:41:45;101853.03;;;18.18;34.70
61710;BME280;47633;51.494;5.386;2023-04-26T02:44:10;101847.75;;;18.18;34.37
61710;BME280;47633;51.494;5.386;2023-04-26T02:46:36;101848.59;;;18.18;34.52
61710;BME280;47633;51.494;5.386;2023-04-26T02:49:01;101850.59;;;18.15;34.71
61710;BME280;47633;51.494;5.386;2023-04-26T02:51:27;101849.75;;;18.14;34.56
61710;BME280;47633;51.494;5.386;2023-04-26T02:53:52;101848.06;;;18.13;34.45
61710;BME280;47633;51.494;5.386;2023-04-26T02:56:17;101848.06;;;18.13;34.49
61710;BME280;47633;51.494;5.386;2023-04-26T02:58:43;101836.78;;;18.11;34.79
61710;BME280;47633;51.494;5.386;2023-04-26T03:01:09;101838.56;;;18.10;34.60
61710;BME280;47633;51.494;5.386;2023-04-26T03:03:34;101842.97;;;18.10;34.65
61710;BME280;47633;51.494;5.386;2023-04-26T03:06:01;101831.69;;;18.08;34.23
61710;BME280;47633;51.494;5.386;2023-04-26T03:08:26;101829.88;;;18.08;34.72
61710;BME280;47633;51.494;5.386;2023-04-26T03:10:51;101832.44;;;18.10;34.57
61710;BME280;47633;51.494;5.386;2023-04-26T03:13:17;101830.56;;;18.12;34.45
61710;BME280;47633;51.494;5.386;2023-04-26T03:15:45;101830.75;;;18.09;34.41
61710;BME280;47633;51.494;5.386;2023-04-26T03:18:10;101835.94;;;18.10;34.58
61710;BME280;47633;51.494;5.386;2023-04-26T03:20:36;101830.75;;;18.09;34.44
61710;BME280;47633;51.494;5.386;2023-04-26T03:23:01;101829.16;;;18.06;34.63
61710;BME280;47633;51.494;5.386;2023-04-26T03:25:26;101837.06;;;18.06;34.47
61710;BME280;47633;51.494;5.386;2023-04-26T03:27:51;101828.31;;;18.06;34.47
61710;BME280;47633;51.494;5.386;2023-04-26T03:30:17;101831.91;;;18.05;34.69
61710;BME280;47633;51.494;5.386;2023-04-26T03:32:42;101819.63;;;18.04;34.39
61710;BME280;47633;51.494;5.386;2023-04-26T03:35:08;101824.91;;;18.04;34.35
61710;BME280;47633;51.494;5.386;2023-04-26T03:37:34;101826.91;;;18.00;34.64
61710;BME280;47633;51.494;5.386;2023-04-26T03:39:59;101816.47;;;17.99;34.46
61710;BME280;47633;51.494;5.386;2023-04-26T03:42:25;101826.91;;;18.00;34.40
61710;BME280;47633;51.494;5.386;2023-04-26T03:44:50;101822.72;;;17.98;34.26
61710;BME280;47633;51.494;5.386;2023-04-26T03:47:15;101818.16;;;18.00;34.50
61710;BME280;47633;51.494;5.386;2023-04-26T03:49:41;101822.47;;;18.01;34.10
61710;BME280;47633;51.494;5.386;2023-04-26T03:52:06;101829.56;;;18.00;34.25
61710;BME280;47633;51.494;5.386;2023-04-26T03:54:33;101827.88;;;17.99;34.29
61710;BME280;47633;51.494;5.386;2023-04-26T03:56:58;101821.84;;;17.97;33.85
61710;BME280;47633;51.494;5.386;2023-04-26T03:59:23;101823.09;;;17.91;33.98
61710;BME280;47633;51.494;5.386;2023-04-26T04:01:48;101833.34;;;17.96;34.09
61710;BME280;47633;51.494;5.386;2023-04-26T04:04:14;101831.56;;;17.97;34.26
61710;BME280;47633;51.494;5.386;2023-04-26T04:06:40;101830.63;;;17.98;34.02
61710;BME280;47633;51.494;5.386;2023-04-26T04:09:05;101832.38;;;17.97;34.24
61710;BME280;47633;51.494;5.386;2023-04-26T04:11:31;101825.53;;;17.94;34.36
61710;BME280;47633;51.494;5.386;2023-04-26T04:13:57;101823.09;;;17.91;34.12
61710;BME280;47633;51.494;5.386;2023-04-26T04:16:22;101825.63;;;17.93;34.07
61710;BME280;47633;51.494;5.386;2023-04-26T04:18:47;101826.56;;;17.92;34.16
61710;BME280;47633;51.494;5.386;2023-04-26T04:21:12;101825.84;;;17.90;34.19
61710;BME280;47633;51.494;5.386;2023-04-26T04:23:38;101826.69;;;17.90;34.00
61710;BME280;47633;51.494;5.386;2023-04-26T04:26:03;101826.69;;;17.90;34.27
61710;BME280;47633;51.494;5.386;2023-04-26T04:28:29;101831.84;;;17.92;34.07
61710;BME280;47633;51.494;5.386;2023-04-26T04:30:55;101832.03;;;17.89;33.92
61710;BME280;47633;51.494;5.386;2023-04-26T04:33:21;101836.28;;;17.91;34.01
61710;BME280;47633;51.494;5.386;2023-04-26T04:35:46;101835.53;;;17.89;34.15
61710;BME280;47633;51.494;5.386;2023-04-26T04:38:11;101828.63;;;17.87;34.02
61710;BME280;47633;51.494;5.386;2023-04-26T04:40:37;101834.00;;;17.85;34.20
61710;BME280;47633;51.494;5.386;2023-04-26T04:43:02;101840.22;;;17.84;33.99
61710;BME280;47633;51.494;5.386;2023-04-26T04:45:27;101838.75;;;17.80;34.50
61710;BME280;47633;51.494;5.386;2023-04-26T04:47:53;101844.66;;;17.84;34.61
61710;BME280;47633;51.494;5.386;2023-04-26T04:50:19;101843.81;;;17.83;35.47
61710;BME280;47633;51.494;5.386;2023-04-26T04:52:44;101840.13;;;17.86;35.26
61710;BME280;47633;51.494;5.386;2023-04-26T04:55:10;101853.13;;;17.89;35.36
61710;BME280;47633;51.494;5.386;2023-04-26T04:57:35;101855.69;;;17.90;35.45
61710;BME280;47633;51.494;5.386;2023-04-26T05:00:01;101845.78;;;17.94;35.30
61710;BME280;47633;51.494;5.386;2023-04-26T05:02:34;101853.28;;;18.00;35.21
61710;BME280;47633;51.494;5.386;2023-04-26T05:04:59;101855.72;;;18.03;35.00
61710;BME280;47633;51.494;5.386;2023-04-26T05:07:26;101853.72;;;18.07;35.14
61710;BME280;47633;51.494;5.386;2023-04-26T05:09:51;101860.50;;;18.11;35.01
61710;BME280;47633;51.494;5.386;2023-04-26T05:12:16;101858.63;;;18.13;35.16
61710;BME280;47633;51.494;5.386;2023-04-26T05:14:41;101850.50;;;18.16;34.96
61710;BME280;47633;51.494;5.386;2023-04-26T05:17:07;101853.78;;;18.20;34.80
61710;BME280;47633;51.494;5.386;2023-04-26T05:19:32;101854.53;;;18.22;34.95
61710;BME280;47633;51.494;5.386;2023-04-26T05:21:57;101856.00;;;18.26;34.86
61710;BME280;47633;51.494;5.386;2023-04-26T05:24:23;101861.97;;;18.29;34.61
61710;BME280;47633;51.494;5.386;2023-04-26T05:26:48;101858.16;;;18.34;34.71
61710;BME280;47633;51.494;5.386;2023-04-26T05:29:13;101861.66;;;18.34;34.81
61710;BME280;47633;51.494;5.386;2023-04-26T05:31:39;101857.00;;;18.38;34.64
61710;BME280;47633;51.494;5.386;2023-04-26T05:34:04;101856.81;;;18.41;34.78
61710;BME280;47633;51.494;5.386;2023-04-26T05:36:29;101865.47;;;18.43;34.42
61710;BME280;47633;51.494;5.386;2023-04-26T05:38:54;101863.56;;;18.45;34.71
61710;BME280;47633;51.494;5.386;2023-04-26T05:41:20;101867.06;;;18.45;34.51
61710;BME280;47633;51.494;5.386;2023-04-26T05:43:46;101863.56;;;18.45;34.71
61710;BME280;47633;51.494;5.386;2023-04-26T05:46:11;101866.00;;;18.48;34.69
61710;BME280;47633;51.494;5.386;2023-04-26T05:48:37;101868.53;;;18.49;34.68
61710;BME280;47633;51.494;5.386;2023-04-26T05:51:03;101864.22;;;18.48;34.56
61710;BME280;47633;51.494;5.386;2023-04-26T05:53:28;101862.22;;;18.52;34.46
61710;BME280;47633;51.494;5.386;2023-04-26T05:55:53;101863.16;;;18.51;34.52
61710;BME280;47633;51.494;5.386;2023-04-26T05:58:18;101857.56;;;18.56;34.62
61710;BME280;47633;51.494;5.386;2023-04-26T06:00:44;101856.75;;;18.55;34.60
61710;BME280;47633;51.494;5.386;2023-04-26T06:03:09;101861.03;;;18.56;34.46
61710;BME280;47633;51.494;5.386;2023-04-26T06:05:35;101862.66;;;18.59;34.36
61710;BME280;47633;51.494;5.386;2023-04-26T06:08:02;101863.28;;;18.62;34.47
61710;BME280;47633;51.494;5.386;2023-04-26T06:10:28;101867.72;;;18.62;34.66
61710;BME280;47633;51.494;5.386;2023-04-26T06:12:53;101862.53;;;18.60;34.71
61710;BME280;47633;51.494;5.386;2023-04-26T06:15:18;101867.72;;;18.62;34.85
61710;BME280;47633;51.494;5.386;2023-04-26T06:17:43;101868.66;;;18.61;35.12
61710;BME280;47633;51.494;5.386;2023-04-26T06:20:09;101876.28;;;18.65;35.07
61710;BME280;47633;51.494;5.386;2023-04-26T06:22:35;101875.34;;;18.66;35.30
61710;BME280;47633;51.494;5.386;2023-04-26T06:25:02;101872.81;;;18.65;35.59
61710;BME280;47633;51.494;5.386;2023-04-26T06:27:28;101880.50;;;18.68;35.75
61710;BME280;47633;51.494;5.386;2023-04-26T06:29:54;101881.34;;;18.68;35.63
61710;BME280;47633;51.494;5.386;2023-04-26T06:32:19;101881.34;;;18.68;35.80
61710;BME280;47633;51.494;5.386;2023-04-26T06:34:44;101886.44;;;18.72;35.93
61710;BME280;47633;51.494;5.386;2023-04-26T06:37:10;101887.38;;;18.71;35.81
61710;BME280;47633;51.494;5.386;2023-04-26T06:39:35;101890.97;;;18.70;36.07
61710;BME280;47633;51.494;5.386;2023-04-26T06:42:02;101895.28;;;18.71;35.96
61710;BME280;47633;51.494;5.386;2023-04-26T06:44:28;101892.53;;;18.72;35.84
61710;BME280;47633;51.494;5.386;2023-04-26T06:46:53;101895.28;;;18.71;35.83
61710;BME280;47633;51.494;5.386;2023-04-26T06:49:19;101898.50;;;18.76;36.03
61710;BME280;47633;51.494;5.386;2023-04-26T06:51:44;101901.97;;;18.76;36.16
61710;BME280;47633;51.494;5.386;2023-04-26T06:54:11;101897.63;;;18.75;36.16
61710;BME280;47633;51.494;5.386;2023-04-26T06:56:36;101897.53;;;18.77;36.48
61710;BME280;47633;51.494;5.386;2023-04-26T06:59:03;101890.56;;;18.76;36.45
61710;BME280;47633;51.494;5.386;2023-04-26T07:01:30;101896.47;;;18.79;36.26
61710;BME280;47633;51.494;5.386;2023-04-26T07:03:58;101893.94;;;18.78;36.17
61710;BME280;47633;51.494;5.386;2023-04-26T07:06:24;101904.41;;;18.79;36.35
61710;BME280;47633;51.494;5.386;2023-04-26T07:08:50;101898.28;;;18.79;36.43
61710;BME280;47633;51.494;5.386;2023-04-26T07:11:15;101893.94;;;18.78;36.63
61710;BME280;47633;51.494;5.386;2023-04-26T07:13:41;101900.16;;;18.77;36.59
61710;BME280;47633;51.494;5.386;2023-04-26T07:16:06;101903.56;;;18.79;36.83
61710;BME280;47633;51.494;5.386;2023-04-26T07:18:31;101901.66;;;18.81;36.88
61710;BME280;47633;51.494;5.386;2023-04-26T07:20:56;101895.66;;;18.79;37.44
61710;BME280;47633;51.494;5.386;2023-04-26T07:23:22;101903.38;;;18.82;37.13
61710;BME280;47633;51.494;5.386;2023-04-26T07:25:47;101900.72;;;18.82;36.82
61710;BME280;47633;51.494;5.386;2023-04-26T07:28:12;101904.13;;;18.84;36.79
61710;BME280;47633;51.494;5.386;2023-04-26T07:30:37;101897.09;;;18.83;36.50
61710;BME280;47633;51.494;5.386;2023-04-26T07:33:03;101904.75;;;18.88;36.82
61710;BME280;47633;51.494;5.386;2023-04-26T07:35:29;101897.78;;;18.87;36.54
61710;BME280;47633;51.494;5.386;2023-04-26T07:37:54;101900.31;;;18.88;36.48
61710;BME280;47633;51.494;5.386;2023-04-26T07:40:19;101896.94;;;18.86;36.60
61710;BME280;47633;51.494;5.386;2023-04-26T07:42:46;101893.34;;;18.87;36.63
61710;BME280;47633;51.494;5.386;2023-04-26T07:45:12;101898.53;;;18.89;36.55
61710;BME280;47633;51.494;5.386;2023-04-26T07:47:37;101893.25;;;18.89;36.39
61710;BME280;47633;51.494;5.386;2023-04-26T07:50:02;101892.19;;;18.91;36.57
61710;BME280;47633;51.494;5.386;2023-04-26T07:52:28;101887.44;;;18.96;36.42
61710;BME280;47633;51.494;5.386;2023-04-26T07:54:53;101882.91;;;18.98;36.03
61710;BME280;47633;51.494;5.386;2023-04-26T07:57:18;101886.16;;;19.02;36.32
61710;BME280;47633;51.494;5.386;2023-04-26T07:59:44;101893.25;;;19.01;36.04
61710;BME280;47633;51.494;5.386;2023-04-26T08:02:09;101893.25;;;19.01;36.08
61710;BME280;47633;51.494;5.386;2023-04-26T08:04:35;101898.66;;;19.00;36.09
61710;BME280;47633;51.494;5.386;2023-04-26T08:07:00;101904.88;;;18.99;36.16
61710;BME280;47633;51.494;5.386;2023-04-26T08:09:27;101902.44;;;18.96;36.18
61710;BME280;47633;51.494;5.386;2023-04-26T08:11:53;101906.88;;;18.95;35.92
61710;BME280;47633;51.494;5.386;2023-04-26T08:14:18;101921.59;;;18.99;36.07
61710;BME280;47633;51.494;5.386;2023-04-26T08:16:43;101910.16;;;18.99;35.93
61710;BME280;47633;51.494;5.386;2023-04-26T08:19:09;101918.84;;;19.01;36.16
61710;BME280;47633;51.494;5.386;2023-04-26T08:21:34;101904.88;;;18.99;36.13
61710;BME280;47633;51.494;5.386;2023-04-26T08:24:05;101902.75;;;19.04;35.93
61710;BME280;47633;51.494;5.386;2023-04-26T08:26:31;101905.94;;;19.09;35.41
61710;BME280;47633;51.494;5.386;2023-04-26T08:28:56;101899.28;;;19.03;35.45
61710;BME280;47633;51.494;5.386;2023-04-26T08:31:21;101900.22;;;19.02;35.48
61710;BME280;47633;51.494;5.386;2023-04-26T08:33:47;101911.13;;;19.11;35.58
61710;BME280;47633;51.494;5.386;2023-04-26T08:36:12;101898.66;;;19.13;35.19
61710;BME280;47633;51.494;5.386;2023-04-26T08:38:37;101908.59;;;19.09;35.54
61710;BME280;47633;51.494;5.386;2023-04-26T08:41:03;101904.34;;;19.07;35.76
61710;BME280;47633;51.494;5.386;2023-04-26T08:43:29;101901.09;;;19.03;35.68
61710;BME280;47633;51.494;5.386;2023-04-26T08:45:54;101899.38;;;19.02;36.02
61710;BME280;47633;51.494;5.386;2023-04-26T08:48:19;101905.75;;;18.99;35.89
61710;BME280;47633;51.494;5.386;2023-04-26T08:50:46;101897.03;;;18.97;35.84
61710;BME280;47633;51.494;5.386;2023-04-26T08:53:15;101901.59;;;18.95;35.97
61710;BME280;47633;51.494;5.386;2023-04-26T08:55:47;101899.91;;;18.94;35.63
61710;BME280;47633;51.494;5.386;2023-04-26T08:58:13;101896.31;;;18.95;35.82
61710;BME280;47633;51.494;5.386;2023-04-26T09:00:41;101897.34;;;18.93;35.82
61710;BME280;47633;51.494;5.386;2023-04-26T09:03:06;101898.13;;;18.95;35.68
61710;BME280;47633;51.494;5.386;2023-04-26T09:05:33;101894.72;;;18.93;35.62
61710;BME280;47633;51.494;5.386;2023-04-26T09:08:03;101899.06;;;18.94;35.90
61710;BME280;47633;51.494;5.386;2023-04-26T09:10:29;101894.31;;;18.99;35.60
61710;BME280;47633;51.494;5.386;2023-04-26T09:12:56;101899.59;;;18.99;35.27
61710;BME280;47633;51.494;5.386;2023-04-26T09:15:23;101883.94;;;18.96;35.55
61710;BME280;47633;51.494;5.386;2023-04-26T09:17:49;101889.44;;;18.93;35.56
61710;BME280;47633;51.494;5.386;2023-04-26T09:20:27;101886.16;;;18.89;35.93
61710;BME280;47633;51.494;5.386;2023-04-26T09:23:02;101887.97;;;18.89;35.86
61710;BME280;47633;51.494;5.386;2023-04-26T09:25:29;101886.16;;;18.89;35.75
61710;BME280;47633;51.494;5.386;2023-04-26T09:27:54;101893.16;;;18.90;35.53
61710;BME280;47633;51.494;5.386;2023-04-26T09:30:20;101883.53;;;18.89;35.77
61710;BME280;47633;51.494;5.386;2023-04-26T09:33:00;101869.28;;;18.92;35.50
61710;BME280;47633;51.494;5.386;2023-04-26T09:35:34;101876.78;;;18.98;35.43
61710;BME280;47633;51.494;5.386;2023-04-26T09:38:04;101881.09;;;19.12;35.14
61710;BME280;47633;51.494;5.386;2023-04-26T09:40:32;101896.22;;;19.23;34.83
61710;BME280;47633;51.494;5.386;2023-04-26T09:43:03;101892.84;;;19.20;34.72
61710;BME280;47633;51.494;5.386;2023-04-26T09:45:30;101890.19;;;19.20;34.67
61710;BME280;47633;51.494;5.386;2023-04-26T09:48:32;101893.88;;;19.05;34.85
61710;BME280;47633;51.494;5.386;2023-04-26T09:51:08;101877.19;;;18.92;35.15
61710;BME280;47633;51.494;5.386;2023-04-26T09:56:17;101882.13;;;18.83;35.46
61710;BME280;47633;51.494;5.386;2023-04-26T10:01:13;101877.72;;;18.84;35.45
61710;BME280;47633;51.494;5.386;2023-04-26T10:03:39;101869.97;;;18.81;35.49
61710;BME280;47633;51.494;5.386;2023-04-26T10:06:05;101876.19;;;18.80;35.24
61710;BME280;47633;51.494;5.386;2023-04-26T10:08:31;101880.34;;;18.84;35.60
61710;BME280;47633;51.494;5.386;2023-04-26T10:10:57;101876.09;;;18.81;35.40
61710;BME280;47633;51.494;5.386;2023-04-26T10:13:23;101888.28;;;18.84;35.34
61710;BME280;47633;51.494;5.386;2023-04-26T10:15:49;101885.63;;;18.84;35.36
61710;BME280;47633;51.494;5.386;2023-04-26T10:18:16;101878.56;;;18.84;35.73
61710;BME280;47633;51.494;5.386;2023-04-26T10:20:45;101872.72;;;18.79;35.57
61710;BME280;47633;51.494;5.386;2023-04-26T10:23:17;101881.47;;;18.80;35.57
61710;BME280;47633;51.494;5.386;2023-04-26T10:25:45;101877.50;;;19.00;35.44
61710;BME280;47633;51.494;5.386;2023-04-26T10:28:10;101875.28;;;19.07;35.38
61710;BME280;47633;51.494;5.386;2023-04-26T10:30:58;101874.88;;;19.13;34.79
61710;BME280;47633;51.494;5.386;2023-04-26T10:33:24;101877.09;;;19.19;34.76
61710;BME280;47633;51.494;5.386;2023-04-26T10:36:00;101879.84;;;19.17;34.75
61710;BME280;47633;51.494;5.386;2023-04-26T10:38:26;101878.91;;;19.18;34.70
61710;BME280;47633;51.494;5.386;2023-04-26T10:40:51;101872.84;;;19.16;34.86
61710;BME280;47633;51.494;5.386;2023-04-26T10:45:47;101866.72;;;19.16;35.17
61710;BME280;47633;51.494;5.386;2023-04-26T10:53:23;101861.88;;;19.10;35.23
61710;BME280;47633;51.494;5.386;2023-04-26T10:55:48;101869.78;;;19.10;35.74
61710;BME280;47633;51.494;5.386;2023-04-26T10:58:27;101864.94;;;19.03;35.78
61710;BME280;47633;51.494;5.386;2023-04-26T11:01:15;101862.38;;;19.02;35.59
61710;BME280;47633;51.494;5.386;2023-04-26T11:03:42;101862.38;;;19.02;35.92
61710;BME280;47633;51.494;5.386;2023-04-26T11:06:10;101868.66;;;19.01;35.85
61710;BME280;47633;51.494;5.386;2023-04-26T11:08:38;101865.88;;;19.02;35.67
61710;BME280;47633;51.494;5.386;2023-04-26T11:13:32;101852.91;;;18.99;35.90
61710;BME280;47633;51.494;5.386;2023-04-26T11:16:01;101854.56;;;19.00;35.88
61710;BME280;47633;51.494;5.386;2023-04-26T11:18:28;101854.47;;;19.02;36.12
61710;BME280;47633;51.494;5.386;2023-04-26T11:20:53;101848.34;;;19.01;36.21
61710;BME280;47633;51.494;5.386;2023-04-26T11:23:19;101850.38;;;18.98;36.18
61710;BME280;47633;51.494;5.386;2023-04-26T11:25:44;101852.03;;;18.99;36.07
61710;BME280;47633;51.494;5.386;2023-04-26T11:28:10;101855.66;;;18.98;36.13
61710;BME280;47633;51.494;5.386;2023-04-26T11:30:36;101844.44;;;18.94;35.99
61710;BME280;47633;51.494;5.386;2023-04-26T11:33:02;101837.16;;;18.98;36.06
61710;BME280;47633;51.494;5.386;2023-04-26T11:35:34;101824.06;;;18.96;36.31
61710;BME280;47633;51.494;5.386;2023-04-26T11:37:59;101831.97;;;18.96;36.47
61710;BME280;47633;51.494;5.386;2023-04-26T11:40:30;101818.13;;;18.93;36.20
61710;BME280;47633;51.494;5.386;2023-04-26T11:43:05;101830.28;;;18.95;36.29
61710;BME280;47633;51.494;5.386;2023-04-26T11:45:32;101833.66;;;18.97;36.00
61710;BME280;47633;51.494;5.386;2023-04-26T11:47:59;101831.88;;;18.98;35.99
61710;BME280;47633;51.494;5.386;2023-04-26T11:50:25;101831.22;;;18.94;36.22
61710;BME280;47633;51.494;5.386;2023-04-26T11:52:53;101835.56;;;18.95;36.04
61710;BME280;47633;51.494;5.386;2023-04-26T11:55:23;101835.78;;;18.92;36.11
61710;BME280;47633;51.494;5.386;2023-04-26T11:57:49;101841.78;;;18.94;35.99
61710;BME280;47633;51.494;5.386;2023-04-26T12:00:15;101840.44;;;18.89;36.62
61710;BME280;47633;51.494;5.386;2023-04-26T12:02:46;101846.75;;;18.86;36.36
61710;BME280;47633;51.494;5.386;2023-04-26T12:05:22;101848.56;;;18.85;36.73
61710;BME280;47633;51.494;5.386;2023-04-26T12:07:54;101839.66;;;18.87;36.67
61710;BME280;47633;51.494;5.386;2023-04-26T12:10:41;101837.78;;;18.89;36.48
61710;BME280;47633;51.494;5.386;2023-04-26T12:13:06;101841.56;;;18.97;36.38
61710;BME280;47633;51.494;5.386;2023-04-26T12:15:32;101838.94;;;18.97;36.56
61710;BME280;47633;51.494;5.386;2023-04-26T12:18:09;101839.03;;;18.96;36.32
61710;BME280;47633;51.494;5.386;2023-04-26T12:20:36;101837.47;;;18.93;36.19
61710;BME280;47633;51.494;5.386;2023-04-26T12:25:30;101834.38;;;18.87;36.52
61710;BME280;47633;51.494;5.386;2023-04-26T12:27:56;101839.25;;;18.93;36.50
61710;BME280;47633;51.494;5.386;2023-04-26T12:30:21;101838.19;;;18.95;35.96
61710;BME280;47633;51.494;5.386;2023-04-26T12:32:46;101838.09;;;18.97;36.29
61710;BME280;47633;51.494;5.386;2023-04-26T12:35:12;101834.72;;;18.95;36.02
61710;BME280;47633;51.494;5.386;2023-04-26T12:37:37;101831.97;;;18.96;35.84
61710;BME280;47633;51.494;5.386;2023-04-26T12:40:03;101832.91;;;18.95;36.45
61710;BME280;47633;51.494;5.386;2023-04-26T12:42:30;101829.97;;;19.00;36.36
61710;BME280;47633;51.494;5.386;2023-04-26T12:44:56;101839.44;;;19.02;36.20
61710;BME280;47633;51.494;5.386;2023-04-26T12:47:21;101843.28;;;18.98;36.30
61710;BME280;47633;51.494;5.386;2023-04-26T12:49:47;101846.13;;;18.95;36.29
61710;BME280;47633;51.494;5.386;2023-04-26T12:52:12;101838.72;;;18.88;36.66
61710;BME280;47633;51.494;5.386;2023-04-26T12:54:37;101834.59;;;18.83;36.67
61710;BME280;47633;51.494;5.386;2023-04-26T12:57:02;101839.31;;;18.78;36.86
61710;BME280;47633;51.494;5.386;2023-04-26T12:59:28;101832.41;;;18.90;36.59
61710;BME280;47633;51.494;5.386;2023-04-26T13:01:53;101830.16;;;18.97;36.65
61710;BME280;47633;51.494;5.386;2023-04-26T13:04:18;101824.47;;;19.03;36.59